createdAt,value
2023-03-05T00:01:24.468Z,59.71
2023-03-05T00:03:52.842Z,59.76
2023-03-05T00:06:20.623Z,59.92
2023-03-05T00:08:58.644Z,60.07
2023-03-05T00:11:28.472Z,60.23
2023-03-05T00:13:56.308Z,60.31
2023-03-05T00:16:26.970Z,60.16
2023-03-05T00:18:54.912Z,60.25
2023-03-05T00:21:25.221Z,60.52
2023-03-05T00:23:53.196Z,60.77
2023-03-05T00:26:20.960Z,60.68
2023-03-05T00:28:50.396Z,60.40
2023-03-05T00:31:18.344Z,60.52
2023-03-05T00:33:46.215Z,60.11
2023-03-05T00:36:16.463Z,60.47
2023-03-05T00:38:43.780Z,60.34
2023-03-05T00:41:11.489Z,60.25
2023-03-05T00:43:38.807Z,60.20
2023-03-05T00:46:06.419Z,60.52
2023-03-05T00:48:33.915Z,60.39
2023-03-05T00:51:01.439Z,60.66
2023-03-05T00:53:28.932Z,60.93
2023-03-05T00:55:56.301Z,60.65
2023-03-05T00:58:23.560Z,60.81
2023-03-05T01:01:11.375Z,60.99
2023-03-05T01:03:39.904Z,61.18
2023-03-05T01:06:11.025Z,61.20
2023-03-05T01:08:39.673Z,61.48
2023-03-05T01:11:08.076Z,61.40
2023-03-05T01:13:35.663Z,61.59
2023-03-05T01:16:03.121Z,61.78
2023-03-05T01:18:30.571Z,62.04
2023-03-05T01:20:57.768Z,62.21
2023-03-05T01:23:25.182Z,62.15
2023-03-05T01:26:00.036Z,62.14
2023-03-05T01:28:27.677Z,62.39
2023-03-05T01:30:55.108Z,62.33
2023-03-05T01:33:24.984Z,62.60
2023-03-05T01:35:53.286Z,63.13
2023-03-05T01:38:20.938Z,62.49
2023-03-05T01:40:48.897Z,63.00
2023-03-05T01:43:29.437Z,63.34
2023-03-05T01:46:35.033Z,62.99
2023-03-05T01:49:12.154Z,63.48
2023-03-05T01:51:43.233Z,63.66
2023-03-05T01:54:13.300Z,63.61
2023-03-05T01:56:42.936Z,63.66
2023-03-05T01:59:10.626Z,63.74
2023-03-05T02:01:42.471Z,63.82
2023-03-05T02:04:12.714Z,64.09
2023-03-05T02:06:41.386Z,63.95
2023-03-05T02:09:08.793Z,64.04
2023-03-05T02:11:37.130Z,64.17
2023-03-05T02:14:07.321Z,64.02
2023-03-05T02:16:38.558Z,64.41
2023-03-05T02:19:11.253Z,64.08
2023-03-05T02:21:44.717Z,64.25
2023-03-05T02:24:15.266Z,64.20
2023-03-05T02:26:45.053Z,64.56
2023-03-05T02:29:15.648Z,64.34
2023-03-05T02:31:46.319Z,64.47
2023-03-05T02:34:13.628Z,64.32
2023-03-05T02:36:41.413Z,64.28
2023-03-05T02:39:09.779Z,64.87
2023-03-05T02:41:46.587Z,64.57
2023-03-05T02:44:13.910Z,65.40
2023-03-05T02:46:41.471Z,64.79
2023-03-05T02:49:09.338Z,65.28
2023-03-05T02:51:37.102Z,65.24
2023-03-05T02:54:08.287Z,65.28
2023-03-05T02:56:48.298Z,65.43
2023-03-05T02:59:19.238Z,65.49
2023-03-05T03:01:46.839Z,65.63
2023-03-05T03:04:29.794Z,65.65
2023-03-05T03:07:10.932Z,65.76
2023-03-05T03:09:58.354Z,65.49
2023-03-05T03:12:25.761Z,65.79
2023-03-05T03:14:55.187Z,65.67
2023-03-05T03:17:22.684Z,65.57
2023-03-05T03:20:15.383Z,65.64
2023-03-05T03:22:53.808Z,65.51
2023-03-05T03:25:31.338Z,65.58
2023-03-05T03:28:06.276Z,65.79
2023-03-05T03:30:39.518Z,65.71
2023-03-05T03:33:09.789Z,65.57
2023-03-05T03:35:40.839Z,65.84
2023-03-05T03:38:12.135Z,65.83
2023-03-05T03:40:58.905Z,65.91
2023-03-05T03:43:31.525Z,65.98
2023-03-05T03:46:00.301Z,65.79
2023-03-05T03:48:30.527Z,65.95
2023-03-05T03:51:11.499Z,65.79
2023-03-05T03:53:40.972Z,65.99
2023-03-05T03:56:28.784Z,65.95
2023-03-05T03:58:58.145Z,66.09
2023-03-05T04:01:46.305Z,66.01
2023-03-05T04:04:23.798Z,65.56
2023-03-05T04:06:53.867Z,65.55
2023-03-05T04:09:23.306Z,65.38
2023-03-05T04:11:53.786Z,65.10
2023-03-05T04:14:24.309Z,64.97
2023-03-05T04:17:12.148Z,65.14
2023-03-05T04:19:59.812Z,65.27
2023-03-05T04:22:38.905Z,65.09
2023-03-05T04:25:08.146Z,65.49
2023-03-05T04:27:48.771Z,65.20
2023-03-05T04:30:21.721Z,65.57
2023-03-05T04:32:52.184Z,65.19
2023-03-05T04:35:39.749Z,65.37
2023-03-05T04:38:27.465Z,65.20
2023-03-05T04:41:06.475Z,65.45
2023-03-05T04:43:53.848Z,65.48
2023-03-05T04:46:21.549Z,65.61
2023-03-05T04:48:58.591Z,65.76
2023-03-05T04:51:28.346Z,65.22
2023-03-05T04:54:05.027Z,65.57
2023-03-05T04:56:37.237Z,65.46
2023-03-05T04:59:13.496Z,65.61
2023-03-05T05:01:41.054Z,65.24
2023-03-05T05:04:21.187Z,65.31
2023-03-05T05:06:50.880Z,64.90
2023-03-05T05:09:27.723Z,65.06
2023-03-05T05:12:00.230Z,64.66
2023-03-05T05:14:27.690Z,64.74
2023-03-05T05:17:15.281Z,64.61
2023-03-05T05:19:47.385Z,64.46
2023-03-05T05:22:25.808Z,64.46
2023-03-05T05:24:55.954Z,64.51
2023-03-05T05:27:23.993Z,64.49
2023-03-05T05:29:52.997Z,64.43
2023-03-05T05:32:24.335Z,64.56
2023-03-05T05:35:13.312Z,64.35
2023-03-05T05:37:51.611Z,64.07
2023-03-05T05:40:39.449Z,64.06
2023-03-05T05:43:27.163Z,64.02
2023-03-05T05:45:54.702Z,63.92
2023-03-05T05:48:32.870Z,63.70
2023-03-05T05:51:08.724Z,63.29
2023-03-05T05:53:36.624Z,62.91
2023-03-05T05:56:04.943Z,62.66
2023-03-05T05:58:44.312Z,62.21
2023-03-05T06:01:24.465Z,62.03
2023-03-05T06:03:52.540Z,61.49
2023-03-05T06:06:21.349Z,61.35
2023-03-05T06:08:58.794Z,60.49
2023-03-05T06:11:36.906Z,59.89
2023-03-05T06:14:04.883Z,59.66
2023-03-05T06:16:42.755Z,59.32
2023-03-05T06:19:13.005Z,58.61
2023-03-05T06:21:44.462Z,57.64
2023-03-05T06:24:14.991Z,56.39
2023-03-05T06:26:46.754Z,54.88
2023-03-05T06:29:18.390Z,53.48
2023-03-05T06:31:45.818Z,51.63
2023-03-05T06:34:13.217Z,50.41
2023-03-05T06:36:43.683Z,48.50
2023-03-05T06:39:10.868Z,46.73
2023-03-05T06:41:38.032Z,46.19
2023-03-05T06:44:05.630Z,45.40
2023-03-05T06:46:35.014Z,45.40
2023-03-05T06:49:04.024Z,45.72
2023-03-05T06:51:33.681Z,45.82
2023-03-05T06:54:05.150Z,46.11
2023-03-05T06:56:32.815Z,46.19
2023-03-05T06:59:00.470Z,45.63
2023-03-05T07:01:30.442Z,46.05
2023-03-05T07:04:00.680Z,45.58
2023-03-05T07:06:28.712Z,45.16
2023-03-05T07:08:58.069Z,44.16
2023-03-05T07:11:28.630Z,44.10
2023-03-05T07:13:59.250Z,44.57
2023-03-05T07:16:31.744Z,45.10
2023-03-05T07:19:05.091Z,45.78
2023-03-05T07:21:36.428Z,46.35
2023-03-05T07:24:09.156Z,46.88
2023-03-05T07:26:36.739Z,46.74
2023-03-05T07:29:04.376Z,47.21
2023-03-05T07:31:34.383Z,48.03
2023-03-05T07:34:03.153Z,48.28
2023-03-05T07:36:35.152Z,48.31
2023-03-05T07:39:14.543Z,48.98
2023-03-05T07:41:42.203Z,49.07
2023-03-05T07:44:13.858Z,49.50
2023-03-05T07:46:41.881Z,49.66
2023-03-05T07:49:19.493Z,49.96
2023-03-05T07:52:07.708Z,50.48
2023-03-05T07:54:39.925Z,50.49
2023-03-05T07:57:27.299Z,50.72
2023-03-05T07:59:57.599Z,51.03
2023-03-05T08:02:27.809Z,51.56
2023-03-05T08:04:58.098Z,51.85
2023-03-05T08:07:28.613Z,52.40
2023-03-05T08:10:16.330Z,52.92
2023-03-05T08:12:43.478Z,53.15
2023-03-05T08:15:24.669Z,53.53
2023-03-05T08:18:02.257Z,54.02
2023-03-05T08:20:42.620Z,54.19
2023-03-05T08:23:29.345Z,54.42
2023-03-05T08:25:57.101Z,54.75
2023-03-05T08:28:27.766Z,55.05
2023-03-05T08:31:16.725Z,55.39
2023-03-05T08:34:05.350Z,55.83
2023-03-05T08:36:53.168Z,56.08
2023-03-05T08:39:20.890Z,56.27
2023-03-05T08:41:51.051Z,56.51
2023-03-05T08:44:18.269Z,56.63
2023-03-05T08:46:48.673Z,56.62
2023-03-05T08:49:16.451Z,56.66
2023-03-05T08:51:43.858Z,56.91
2023-03-05T08:54:31.180Z,56.90
2023-03-05T08:57:19.427Z,57.04
2023-03-05T08:59:58.152Z,57.17
2023-03-05T09:02:46.011Z,57.53
2023-03-05T09:05:33.513Z,58.24
2023-03-05T09:08:01.541Z,57.88
2023-03-05T09:10:28.834Z,57.79
2023-03-05T09:12:55.992Z,57.73
2023-03-05T09:15:25.895Z,57.78
2023-03-05T09:17:53.002Z,57.92
2023-03-05T09:20:21.272Z,58.04
2023-03-05T09:22:58.582Z,58.12
2023-03-05T09:25:46.350Z,58.24
2023-03-05T09:28:34.027Z,58.06
2023-03-05T09:31:21.760Z,57.94
2023-03-05T09:33:52.606Z,58.16
2023-03-05T09:36:40.108Z,58.33
2023-03-05T09:39:27.894Z,58.52
2023-03-05T09:42:31.067Z,58.65
2023-03-05T09:45:27.630Z,58.66
2023-03-05T09:48:08.319Z,58.77
2023-03-05T09:50:51.280Z,58.89
2023-03-05T09:53:38.561Z,58.81
2023-03-05T09:56:21.285Z,58.81
2023-03-05T09:59:27.696Z,58.87
2023-03-05T10:02:22.568Z,58.94
2023-03-05T10:05:05.266Z,58.99
2023-03-05T10:07:34.974Z,59.20
2023-03-05T10:10:03.970Z,59.31
2023-03-05T10:12:57.025Z,59.36
2023-03-05T10:15:32.841Z,59.36
2023-03-05T10:18:19.892Z,59.26
2023-03-05T10:21:03.223Z,59.15
2023-03-05T10:23:44.790Z,59.38
2023-03-05T10:26:46.693Z,59.59
2023-03-05T10:29:50.298Z,59.64
2023-03-05T10:32:42.115Z,59.80
2023-03-05T10:35:41.370Z,59.65
2023-03-05T10:38:53.139Z,59.86
2023-03-05T10:41:49.620Z,59.90
2023-03-05T10:44:43.625Z,60.19
2023-03-05T10:47:39.087Z,60.31
2023-03-05T10:50:29.393Z,60.49
2023-03-05T10:53:22.355Z,60.37
2023-03-05T10:55:56.415Z,60.55
2023-03-05T10:58:24.979Z,60.60
2023-03-05T11:01:22.094Z,60.49
2023-03-05T11:03:56.158Z,60.35
2023-03-05T11:06:36.706Z,60.39
2023-03-05T11:09:29.639Z,60.43
2023-03-05T11:12:15.139Z,60.45
2023-03-05T11:14:45.550Z,60.58
2023-03-05T11:17:33.669Z,60.58
2023-03-05T11:20:34.714Z,61.02
2023-03-05T11:23:13.690Z,61.67
2023-03-05T11:25:57.162Z,62.45
2023-03-05T11:28:33.023Z,63.24
2023-03-05T11:31:04.805Z,63.81
2023-03-05T11:33:33.308Z,63.96
2023-03-05T11:36:22.957Z,64.34
2023-03-05T11:38:58.094Z,64.54
2023-03-05T11:41:38.350Z,64.78
2023-03-05T11:44:13.446Z,64.96
2023-03-05T11:46:48.679Z,65.26
2023-03-05T11:49:25.461Z,65.26
2023-03-05T11:52:12.779Z,65.41
2023-03-05T11:54:45.741Z,65.69
2023-03-05T11:57:25.460Z,65.99
2023-03-05T12:00:17.342Z,66.37
2023-03-05T12:02:45.924Z,66.47
2023-03-05T12:05:23.810Z,66.67
2023-03-05T12:08:16.322Z,66.61
2023-03-05T12:10:44.344Z,66.42
2023-03-05T12:13:22.212Z,66.45
2023-03-05T12:16:07.593Z,66.57
2023-03-05T12:18:43.902Z,66.46
2023-03-05T12:21:22.736Z,66.72
2023-03-05T12:23:52.793Z,66.87
2023-03-05T12:26:40.777Z,67.07
2023-03-05T12:29:41.869Z,67.57
2023-03-05T12:32:51.791Z,67.91
2023-03-05T12:35:31.228Z,67.97
2023-03-05T12:38:33.198Z,68.16
2023-03-05T12:41:42.998Z,68.19
2023-03-05T12:44:25.555Z,68.30
2023-03-05T12:47:23.882Z,68.60
2023-03-05T12:50:46.976Z,68.63
2023-03-05T12:53:33.475Z,68.67
2023-03-05T12:56:27.248Z,68.55
2023-03-05T12:58:59.011Z,68.63
2023-03-05T13:01:52.084Z,68.84
2023-03-05T13:04:46.043Z,68.65
2023-03-05T13:07:33.411Z,68.56
2023-03-05T13:10:27.656Z,68.55
2023-03-05T13:13:17.432Z,68.53
2023-03-05T13:15:51.862Z,68.51
2023-03-05T13:18:22.575Z,68.65
2023-03-05T13:21:08.739Z,68.83
2023-03-05T13:23:57.954Z,68.74
2023-03-05T13:26:42.644Z,68.72
2023-03-05T13:29:31.468Z,68.66
2023-03-05T13:32:27.667Z,68.90
2023-03-05T13:35:16.756Z,68.66
2023-03-05T13:37:46.587Z,68.79
2023-03-05T13:40:35.157Z,68.83
2023-03-05T13:43:20.905Z,68.92
2023-03-05T13:45:59.953Z,69.06
2023-03-05T13:48:28.871Z,69.31
2023-03-05T13:51:00.591Z,69.46
2023-03-05T13:53:29.236Z,69.47
2023-03-05T13:56:19.602Z,69.55
2023-03-05T13:59:17.784Z,69.57
2023-03-05T14:01:57.092Z,69.61
2023-03-05T14:04:26.558Z,69.61
2023-03-05T14:07:06.483Z,69.64
2023-03-05T14:09:50.172Z,69.63
2023-03-05T14:12:31.721Z,69.42
2023-03-05T14:15:02.299Z,69.72
2023-03-05T14:17:42.541Z,69.83
2023-03-05T14:20:28.594Z,70.00
2023-03-05T14:22:58.151Z,70.03
2023-03-05T14:25:45.939Z,70.08
2023-03-05T14:28:29.834Z,70.26
2023-03-05T14:31:19.531Z,70.12
2023-03-05T14:34:02.371Z,70.11
2023-03-05T14:36:52.875Z,70.21
2023-03-05T14:39:52.115Z,70.31
2023-03-05T14:42:32.780Z,70.17
2023-03-05T14:45:22.879Z,70.01
2023-03-05T14:48:12.245Z,70.04
2023-03-05T14:50:44.415Z,70.14
2023-03-05T14:53:47.353Z,70.31
2023-03-05T14:56:29.401Z,70.40
2023-03-05T14:58:57.692Z,70.47
2023-03-05T15:01:45.373Z,70.64
2023-03-05T15:04:31.413Z,70.73
2023-03-05T15:07:12.437Z,70.82
2023-03-05T15:10:01.063Z,70.65
2023-03-05T15:12:38.785Z,70.78
2023-03-05T15:15:07.677Z,70.95
2023-03-05T15:17:48.195Z,71.00
2023-03-05T15:20:19.727Z,70.98
2023-03-05T15:23:07.684Z,70.94
2023-03-05T15:25:35.102Z,70.94
2023-03-05T15:28:10.390Z,71.01
2023-03-05T15:30:43.253Z,71.11
2023-03-05T15:33:13.790Z,71.01
2023-03-05T15:35:45.783Z,71.05
2023-03-05T15:38:13.115Z,71.18
2023-03-05T15:40:40.776Z,71.20
2023-03-05T15:43:30.678Z,71.34
2023-03-05T15:46:00.787Z,71.36
2023-03-05T15:48:28.461Z,71.48
2023-03-05T15:51:10.853Z,71.70
2023-03-05T15:53:51.020Z,71.50
2023-03-05T15:56:19.942Z,71.54
2023-03-05T15:59:00.169Z,71.79
2023-03-05T16:01:52.773Z,71.87
2023-03-05T16:04:42.016Z,71.81
2023-03-05T16:07:31.419Z,71.55
2023-03-05T16:10:18.010Z,71.86
2023-03-05T16:12:46.226Z,72.08
2023-03-05T16:15:25.581Z,72.05
2023-03-05T16:18:07.600Z,72.11
2023-03-05T16:20:36.378Z,72.29
2023-03-05T16:23:04.342Z,72.37
2023-03-05T16:25:32.078Z,72.49
2023-03-05T16:27:59.647Z,72.61
2023-03-05T16:30:37.781Z,72.75
2023-03-05T16:33:24.259Z,72.81
2023-03-05T16:36:22.691Z,73.18
2023-03-05T16:39:01.206Z,73.29
2023-03-05T16:41:30.959Z,73.27
2023-03-05T16:43:58.419Z,73.43
2023-03-05T16:46:32.434Z,73.31
2023-03-05T16:49:19.445Z,73.65
2023-03-05T16:51:47.309Z,73.88
2023-03-05T16:54:24.703Z,74.11
2023-03-05T16:57:05.533Z,74.22
2023-03-05T16:59:53.205Z,74.23
2023-03-05T17:02:24.364Z,74.56
2023-03-05T17:05:06.208Z,74.77
2023-03-05T17:07:55.632Z,74.73
2023-03-05T17:10:23.590Z,74.81
2023-03-05T17:13:02.207Z,75.15
2023-03-05T17:15:35.523Z,74.93
2023-03-05T17:18:03.045Z,75.12
2023-03-05T17:20:31.333Z,75.19
2023-03-05T17:23:16.101Z,75.47
2023-03-05T17:25:53.627Z,75.43
2023-03-05T17:28:42.290Z,75.62
2023-03-05T17:31:09.910Z,75.71
2023-03-05T17:33:38.535Z,75.61
2023-03-05T17:36:06.913Z,75.79
2023-03-05T17:38:34.243Z,75.94
2023-03-05T17:41:04.651Z,76.17
2023-03-05T17:43:34.977Z,76.30
2023-03-05T17:46:05.312Z,76.42
2023-03-05T17:48:34.293Z,76.41
2023-03-05T17:51:02.167Z,76.34
2023-03-05T17:53:37.496Z,76.65
2023-03-05T17:56:07.040Z,76.90
2023-03-05T17:58:37.601Z,76.78
2023-03-05T18:01:22.837Z,76.99
2023-03-05T18:03:50.338Z,77.27
2023-03-05T18:06:38.055Z,77.28
2023-03-05T18:09:25.435Z,77.28
2023-03-05T18:11:55.680Z,77.47
2023-03-05T18:14:36.325Z,77.68
2023-03-05T18:17:24.212Z,77.68
2023-03-05T18:19:54.171Z,78.05
2023-03-05T18:22:23.886Z,78.25
2023-03-05T18:25:13.381Z,78.25
2023-03-05T18:27:41.128Z,78.34
2023-03-05T18:30:19.333Z,78.66
2023-03-05T18:32:52.360Z,78.56
2023-03-05T18:35:24.957Z,78.53
2023-03-05T18:38:12.863Z,78.59
2023-03-05T18:41:03.535Z,78.36
2023-03-05T18:43:53.926Z,78.78
2023-03-05T18:46:24.648Z,78.68
2023-03-05T18:49:12.468Z,78.44
2023-03-05T18:51:52.348Z,79.01
2023-03-05T18:54:33.930Z,78.76
2023-03-05T18:57:03.953Z,79.01
2023-03-05T18:59:51.483Z,78.84
2023-03-05T19:02:37.954Z,78.84
2023-03-05T19:05:05.850Z,78.80
2023-03-05T19:07:44.392Z,78.87
2023-03-05T19:10:33.943Z,78.86
2023-03-05T19:13:26.183Z,78.86
2023-03-05T19:15:54.182Z,79.12
2023-03-05T19:18:50.133Z,79.02
2023-03-05T19:21:36.170Z,78.83
2023-03-05T19:24:24.770Z,79.22
2023-03-05T19:27:13.687Z,79.06
2023-03-05T19:29:50.416Z,79.06
2023-03-05T19:32:38.772Z,79.45
2023-03-05T19:35:23.740Z,79.11
2023-03-05T19:37:54.277Z,79.43
2023-03-05T19:40:28.773Z,79.41
2023-03-05T19:43:17.889Z,79.62
2023-03-05T19:46:05.666Z,79.74
2023-03-05T19:48:53.592Z,79.61
2023-03-05T19:51:25.406Z,80.04
2023-03-05T19:54:13.898Z,80.07
2023-03-05T19:57:01.808Z,80.12
2023-03-05T19:59:40.491Z,79.95
2023-03-05T20:02:28.674Z,80.29
2023-03-05T20:05:10.126Z,80.21
2023-03-05T20:07:57.694Z,80.59
2023-03-05T20:10:45.536Z,80.62
2023-03-05T20:13:25.485Z,80.42
2023-03-05T20:15:55.851Z,80.38
2023-03-05T20:18:23.320Z,80.47
2023-03-05T20:21:03.550Z,80.55
2023-03-05T20:23:31.100Z,80.47
2023-03-05T20:26:02.442Z,80.48
2023-03-05T20:28:30.305Z,80.45
2023-03-05T20:30:59.858Z,80.30
2023-03-05T20:33:29.197Z,80.40
2023-03-05T20:35:57.328Z,80.69
2023-03-05T20:38:32.525Z,80.58
2023-03-05T20:41:02.840Z,80.25
2023-03-05T20:43:31.976Z,80.52
2023-03-05T20:46:00.329Z,80.39
2023-03-05T20:48:32.479Z,80.41
2023-03-05T20:51:01.559Z,80.65
2023-03-05T20:53:40.503Z,80.29
2023-03-05T20:56:09.417Z,80.48
2023-03-05T20:58:41.972Z,80.39
2023-03-05T21:01:09.729Z,80.16
2023-03-05T21:03:48.527Z,80.42
2023-03-05T21:06:18.538Z,80.18
2023-03-05T21:08:57.283Z,79.87
2023-03-05T21:11:28.065Z,80.07
2023-03-05T21:13:55.537Z,79.94
2023-03-05T21:16:25.421Z,79.88
2023-03-05T21:18:53.205Z,79.82
2023-03-05T21:21:31.793Z,80.09
2023-03-05T21:24:04.984Z,80.02
2023-03-05T21:26:42.588Z,79.82
2023-03-05T21:29:10.145Z,79.75
2023-03-05T21:31:48.739Z,79.85
2023-03-05T21:34:16.345Z,79.46
2023-03-05T21:36:48.617Z,79.57
2023-03-05T21:39:27.226Z,79.53
2023-03-05T21:42:03.903Z,79.62
2023-03-05T21:44:40.656Z,79.47
2023-03-05T21:47:08.340Z,79.33
2023-03-05T21:49:35.675Z,79.46
2023-03-05T21:52:09.588Z,79.45
2023-03-05T21:54:36.832Z,79.25
2023-03-05T21:57:26.509Z,79.44
2023-03-05T21:59:54.167Z,79.06
2023-03-05T22:02:31.176Z,79.24
2023-03-05T22:05:18.928Z,79.34
2023-03-05T22:08:07.348Z,79.27
2023-03-05T22:10:48.273Z,79.03
2023-03-05T22:13:23.808Z,78.90
2023-03-05T22:15:56.664Z,79.10
2023-03-05T22:18:37.496Z,79.18
2023-03-05T22:21:21.080Z,78.88
2023-03-05T22:24:10.077Z,79.07
2023-03-05T22:26:47.514Z,79.14
2023-03-05T22:29:27.032Z,79.21
2023-03-05T22:31:57.879Z,79.13
2023-03-05T22:34:45.302Z,79.03
2023-03-05T22:37:12.562Z,79.17
2023-03-05T22:40:00.383Z,79.04
2023-03-05T22:42:34.903Z,78.85
2023-03-05T22:45:13.582Z,79.22
2023-03-05T22:47:47.125Z,78.81
2023-03-05T22:50:15.332Z,79.20
2023-03-05T22:52:42.710Z,78.55
2023-03-05T22:55:31.305Z,79.46
2023-03-05T22:57:58.502Z,79.12
2023-03-05T23:00:26.957Z,79.35
2023-03-05T23:02:54.999Z,79.37
2023-03-05T23:05:30.975Z,79.44
2023-03-05T23:08:18.915Z,79.63
2023-03-05T23:10:56.341Z,79.31
2023-03-05T23:13:29.444Z,79.17
2023-03-05T23:16:16.998Z,79.53
2023-03-05T23:18:44.596Z,79.40
2023-03-05T23:21:31.912Z,79.60
2023-03-05T23:23:59.309Z,79.86
2023-03-05T23:26:29.292Z,79.58
2023-03-05T23:29:01.672Z,79.62
2023-03-05T23:31:38.892Z,79.96
2023-03-05T23:34:20.432Z,79.49
2023-03-05T23:36:58.024Z,79.68
2023-03-05T23:39:45.903Z,79.63
2023-03-05T23:42:23.812Z,79.54
2023-03-05T23:45:14.323Z,79.35
2023-03-05T23:47:55.740Z,79.70
2023-03-05T23:50:35.536Z,79.34
2023-03-05T23:53:25.176Z,79.75
2023-03-05T23:56:13.895Z,79.80
2023-03-05T23:59:00.547Z,79.86
